createdAt,value
2023-04-13T00:00:16.594Z,7.40
2023-04-13T00:01:17.183Z,7.40
2023-04-13T00:02:17.000Z,7.39
2023-04-13T00:03:16.811Z,7.43
2023-04-13T00:04:17.294Z,7.46
2023-04-13T00:05:16.919Z,7.46
2023-04-13T00:06:16.606Z,7.45
2023-04-13T00:07:17.138Z,7.47
2023-04-13T00:08:16.689Z,7.46
2023-04-13T00:09:17.281Z,7.45
2023-04-13T00:10:16.850Z,7.49
2023-04-13T00:11:16.400Z,7.54
2023-04-13T00:12:16.586Z,7.56
2023-04-13T00:13:17.126Z,7.54
2023-04-13T00:14:16.704Z,7.56
2023-04-13T00:15:17.262Z,7.50
2023-04-13T00:16:16.869Z,7.50
2023-04-13T00:17:16.484Z,7.50
2023-04-13T00:18:17.061Z,7.49
2023-04-13T00:19:16.623Z,7.50
2023-04-13T00:20:17.187Z,7.49
2023-04-13T00:21:16.770Z,7.43
2023-04-13T00:22:17.072Z,7.43
2023-04-13T00:23:16.632Z,7.40
2023-04-13T00:24:17.174Z,7.40
2023-04-13T00:25:16.749Z,7.42
2023-04-13T00:26:16.371Z,7.43
2023-04-13T00:27:16.942Z,7.45
2023-04-13T00:28:16.576Z,7.40
2023-04-13T00:29:17.121Z,7.42
2023-04-13T00:30:16.747Z,7.42
2023-04-13T00:31:17.376Z,7.42
2023-04-13T00:32:17.246Z,7.39
2023-04-13T00:33:16.836Z,7.39
2023-04-13T00:34:16.496Z,7.36
2023-04-13T00:35:17.077Z,7.39
2023-04-13T00:36:16.648Z,7.36
2023-04-13T00:37:17.197Z,7.35
2023-04-13T00:38:16.746Z,7.36
2023-04-13T00:39:17.295Z,7.36
2023-04-13T00:40:16.894Z,7.35
2023-04-13T00:41:16.521Z,7.38
2023-04-13T00:42:17.181Z,7.40
2023-04-13T00:43:16.725Z,7.46
2023-04-13T00:44:17.263Z,7.45
2023-04-13T00:45:16.805Z,7.49
2023-04-13T00:46:16.389Z,7.46
2023-04-13T00:47:17.059Z,7.46
2023-04-13T00:48:16.592Z,7.47
2023-04-13T00:49:17.137Z,7.50
2023-04-13T00:50:16.685Z,7.51
2023-04-13T00:51:17.252Z,7.50
2023-04-13T00:52:17.139Z,7.51
2023-04-13T00:53:16.704Z,7.53
2023-04-13T00:54:17.242Z,7.56
2023-04-13T00:55:16.811Z,7.56
2023-04-13T00:56:16.383Z,7.54
2023-04-13T00:57:16.928Z,7.54
2023-04-13T00:58:16.474Z,7.54
2023-04-13T00:59:17.009Z,7.51
2023-04-13T01:00:16.606Z,7.56
2023-04-13T01:01:17.217Z,7.56
2023-04-13T01:02:17.167Z,7.57
2023-04-13T01:03:17.187Z,7.58
2023-04-13T01:04:16.964Z,7.57
2023-04-13T01:05:16.628Z,7.60
2023-04-13T01:06:17.265Z,7.56
2023-04-13T01:07:16.842Z,7.56
2023-04-13T01:08:16.402Z,7.56
2023-04-13T01:09:16.991Z,7.57
2023-04-13T01:10:16.589Z,7.56
2023-04-13T01:11:17.133Z,7.56
2023-04-13T01:12:16.719Z,7.53
2023-04-13T01:13:17.246Z,7.53
2023-04-13T01:14:16.771Z,7.50
2023-04-13T01:15:16.325Z,7.47
2023-04-13T01:16:16.868Z,7.46
2023-04-13T01:17:16.501Z,7.47
2023-04-13T01:18:17.052Z,7.45
2023-04-13T01:19:16.603Z,7.45
2023-04-13T01:20:17.174Z,7.47
2023-04-13T01:21:16.724Z,7.45
2023-04-13T01:22:17.200Z,7.39
2023-04-13T01:23:16.766Z,7.40
2023-04-13T01:24:17.304Z,7.40
2023-04-13T01:25:16.845Z,7.40
2023-04-13T01:26:16.408Z,7.39
2023-04-13T01:27:16.992Z,7.36
2023-04-13T01:28:16.534Z,7.33
2023-04-13T01:29:17.083Z,7.30
2023-04-13T01:30:16.650Z,7.32
2023-04-13T01:31:17.312Z,7.29
2023-04-13T01:32:16.852Z,7.22
2023-04-13T01:33:16.441Z,7.21
2023-04-13T01:34:17.193Z,7.23
2023-04-13T01:35:16.756Z,7.21
2023-04-13T01:36:17.335Z,7.23
2023-04-13T01:37:16.896Z,7.18
2023-04-13T01:38:16.444Z,7.19
2023-04-13T01:39:16.973Z,7.12
2023-04-13T01:40:16.517Z,7.10
2023-04-13T01:41:17.058Z,7.10
2023-04-13T01:42:16.409Z,7.08
2023-04-13T01:43:16.928Z,7.05
2023-04-13T01:44:16.476Z,7.04
2023-04-13T01:45:17.012Z,7.04
2023-04-13T01:46:16.607Z,7.02
2023-04-13T01:47:17.290Z,7.00
2023-04-13T01:48:16.847Z,7.00
2023-04-13T01:49:16.397Z,6.97
2023-04-13T01:50:16.943Z,6.95
2023-04-13T01:51:16.562Z,6.97
2023-04-13T01:52:17.275Z,7.00
2023-04-13T01:53:16.853Z,6.98
2023-04-13T01:54:16.383Z,6.95
2023-04-13T01:55:16.911Z,6.95
2023-04-13T01:56:16.442Z,6.94
2023-04-13T01:57:16.980Z,6.90
2023-04-13T01:58:16.510Z,6.88
2023-04-13T01:59:17.056Z,6.91
2023-04-13T02:00:16.626Z,6.88
2023-04-13T02:01:17.217Z,6.84
2023-04-13T02:02:16.554Z,6.86
2023-04-13T02:03:16.654Z,6.86
2023-04-13T02:04:16.536Z,6.91
2023-04-13T02:05:17.273Z,6.87
2023-04-13T02:06:16.858Z,6.88
2023-04-13T02:07:16.401Z,6.87
2023-04-13T02:08:17.029Z,6.87
2023-04-13T02:09:16.587Z,6.88
2023-04-13T02:10:17.164Z,6.83
2023-04-13T02:11:16.708Z,6.84
2023-04-13T02:12:17.192Z,6.87
2023-04-13T02:13:16.744Z,6.91
2023-04-13T02:14:17.314Z,6.87
2023-04-13T02:15:16.846Z,6.88
2023-04-13T02:16:16.449Z,6.90
2023-04-13T02:17:17.072Z,6.86
2023-04-13T02:18:16.614Z,6.83
2023-04-13T02:19:17.196Z,6.84
2023-04-13T02:20:16.753Z,6.86
2023-04-13T02:21:17.303Z,6.87
2023-04-13T02:22:16.977Z,6.84
2023-04-13T02:23:16.527Z,6.84
2023-04-13T02:24:17.127Z,6.82
2023-04-13T02:25:16.671Z,6.79
2023-04-13T02:26:17.216Z,6.77
2023-04-13T02:27:16.775Z,6.74
2023-04-13T02:28:17.302Z,6.77
2023-04-13T02:29:17.325Z,6.76
2023-04-13T02:30:16.900Z,6.76
2023-04-13T02:31:16.518Z,6.77
2023-04-13T02:32:17.004Z,6.76
2023-04-13T02:33:16.606Z,6.76
2023-04-13T02:34:17.153Z,6.74
2023-04-13T02:35:16.685Z,6.70
2023-04-13T02:36:16.383Z,6.72
2023-04-13T02:37:16.922Z,6.69
2023-04-13T02:38:16.476Z,6.59
2023-04-13T02:39:17.038Z,6.60
2023-04-13T02:40:16.640Z,6.60
2023-04-13T02:41:17.200Z,6.57
2023-04-13T02:42:16.583Z,6.56
2023-04-13T02:43:17.133Z,6.50
2023-04-13T02:44:16.704Z,6.50
2023-04-13T02:45:17.264Z,6.49
2023-04-13T02:46:16.933Z,6.50
2023-04-13T02:47:16.728Z,6.46
2023-04-13T02:48:16.343Z,6.45
2023-04-13T02:49:16.907Z,6.40
2023-04-13T02:50:16.456Z,6.40
2023-04-13T02:51:17.027Z,6.40
2023-04-13T02:52:16.386Z,6.42
2023-04-13T02:53:16.993Z,6.40
2023-04-13T02:54:16.583Z,6.39
2023-04-13T02:55:17.151Z,6.36
2023-04-13T02:56:16.689Z,6.39
2023-04-13T02:57:17.352Z,6.36
2023-04-13T02:58:16.902Z,6.35
2023-04-13T02:59:16.469Z,6.35
2023-04-13T03:00:17.095Z,6.33
2023-04-13T03:01:16.668Z,6.32
2023-04-13T03:02:16.848Z,6.33
2023-04-13T03:03:16.627Z,6.31
2023-04-13T03:04:16.429Z,6.35
2023-04-13T03:05:17.044Z,6.36
2023-04-13T03:06:16.582Z,6.38
2023-04-13T03:07:17.346Z,6.36
2023-04-13T03:08:16.920Z,6.32
2023-04-13T03:09:16.486Z,6.31
2023-04-13T03:10:17.038Z,6.31
2023-04-13T03:11:16.588Z,6.32
2023-04-13T03:12:17.143Z,6.31
2023-04-13T03:13:16.705Z,6.29
2023-04-13T03:14:17.266Z,6.29
2023-04-13T03:15:16.837Z,6.29
2023-04-13T03:16:16.394Z,6.31
2023-04-13T03:17:18.506Z,6.33
2023-04-13T03:18:16.393Z,6.28
2023-04-13T03:19:16.934Z,6.25
2023-04-13T03:20:16.498Z,6.25
2023-04-13T03:21:17.122Z,6.24
2023-04-13T03:22:17.316Z,6.25
2023-04-13T03:23:16.860Z,6.22
2023-04-13T03:24:16.416Z,6.21
2023-04-13T03:25:17.000Z,6.22
2023-04-13T03:26:16.538Z,6.22
2023-04-13T03:27:17.125Z,6.21
2023-04-13T03:28:16.695Z,6.22
2023-04-13T03:29:17.277Z,6.20
2023-04-13T03:30:16.853Z,6.15
2023-04-13T03:31:16.382Z,6.14
2023-04-13T03:32:16.957Z,6.12
2023-04-13T03:33:16.580Z,6.10
2023-04-13T03:34:17.125Z,6.07
2023-04-13T03:35:16.680Z,6.04
2023-04-13T03:36:17.248Z,6.01
2023-04-13T03:37:16.772Z,6.00
2023-04-13T03:38:17.304Z,6.01
2023-04-13T03:39:16.905Z,6.00
2023-04-13T03:40:16.511Z,6.01
2023-04-13T03:41:17.064Z,6.01
2023-04-13T03:42:16.429Z,5.97
2023-04-13T03:43:17.006Z,5.96
2023-04-13T03:44:16.615Z,5.97
2023-04-13T03:45:17.191Z,5.94
2023-04-13T03:46:16.814Z,5.93
2023-04-13T03:47:16.379Z,5.96
2023-04-13T03:48:16.900Z,5.93
2023-04-13T03:49:16.434Z,5.94
2023-04-13T03:50:16.994Z,5.93
2023-04-13T03:51:16.610Z,5.93
2023-04-13T03:52:16.332Z,5.96
2023-04-13T03:53:16.919Z,5.96
2023-04-13T03:54:16.463Z,5.96
2023-04-13T03:55:17.065Z,5.96
2023-04-13T03:56:16.792Z,5.92
2023-04-13T03:57:16.337Z,5.92
2023-04-13T03:58:16.904Z,5.93
2023-04-13T03:59:16.450Z,5.93
2023-04-13T04:00:16.987Z,5.90
2023-04-13T04:01:16.579Z,5.87
2023-04-13T04:02:17.000Z,5.89
2023-04-13T04:03:16.856Z,5.86
2023-04-13T04:04:16.710Z,5.87
2023-04-13T04:05:16.591Z,5.87
2023-04-13T04:06:16.355Z,5.86
2023-04-13T04:07:16.954Z,5.87
2023-04-13T04:08:16.517Z,5.86
2023-04-13T04:09:17.084Z,5.86
2023-04-13T04:10:16.634Z,5.85
2023-04-13T04:11:17.188Z,5.86
2023-04-13T04:12:17.009Z,5.87
2023-04-13T04:13:16.659Z,5.85
2023-04-13T04:14:17.227Z,5.89
2023-04-13T04:15:16.803Z,5.85
2023-04-13T04:16:16.428Z,5.87
2023-04-13T04:17:17.133Z,5.85
2023-04-13T04:18:16.681Z,5.87
2023-04-13T04:19:17.223Z,5.85
2023-04-13T04:20:16.820Z,5.83
2023-04-13T04:21:16.356Z,5.82
2023-04-13T04:22:16.984Z,5.83
2023-04-13T04:23:17.230Z,5.85
2023-04-13T04:24:16.366Z,5.86
2023-04-13T04:25:16.913Z,5.86
2023-04-13T04:26:16.455Z,5.87
2023-04-13T04:27:16.987Z,5.87
2023-04-13T04:28:16.539Z,5.90
2023-04-13T04:29:17.079Z,5.90
2023-04-13T04:30:16.639Z,5.89
2023-04-13T04:31:17.213Z,5.92
2023-04-13T04:32:16.854Z,5.90
2023-04-13T04:33:16.450Z,5.87
2023-04-13T04:34:17.023Z,5.86
2023-04-13T04:35:16.609Z,5.86
2023-04-13T04:36:17.151Z,5.82
2023-04-13T04:37:20.490Z,5.80
2023-04-13T04:38:16.496Z,5.77
2023-04-13T04:39:17.069Z,5.80
2023-04-13T04:40:16.642Z,5.80
2023-04-13T04:41:17.215Z,5.79
2023-04-13T04:42:17.094Z,5.79
2023-04-13T04:43:16.616Z,5.79
2023-04-13T04:44:17.156Z,5.86
2023-04-13T04:45:16.741Z,5.94
2023-04-13T04:46:17.339Z,5.93
2023-04-13T04:47:17.012Z,5.92
2023-04-13T04:48:16.561Z,5.90
2023-04-13T04:49:17.144Z,5.90
2023-04-13T04:50:16.743Z,5.89
2023-04-13T04:51:17.342Z,5.86
2023-04-13T04:52:16.842Z,5.83
2023-04-13T04:53:16.379Z,5.83
2023-04-13T04:54:16.932Z,5.79
2023-04-13T04:55:16.472Z,5.82
2023-04-13T04:56:17.033Z,5.83
2023-04-13T04:57:16.592Z,5.80
2023-04-13T04:58:17.138Z,5.82
2023-04-13T04:59:16.714Z,5.83
2023-04-13T05:00:17.288Z,5.80
2023-04-13T05:01:16.901Z,5.80
2023-04-13T05:02:17.025Z,5.82
2023-04-13T05:03:16.790Z,5.83
2023-04-13T05:04:16.478Z,5.83
2023-04-13T05:05:17.065Z,5.83
2023-04-13T05:06:16.692Z,5.83
2023-04-13T05:07:17.275Z,5.85
2023-04-13T05:08:16.833Z,5.82
2023-04-13T05:09:16.406Z,5.79
2023-04-13T05:10:17.010Z,5.79
2023-04-13T05:11:16.602Z,5.79
2023-04-13T05:12:17.292Z,5.79
2023-04-13T05:13:16.835Z,5.79
2023-04-13T05:14:16.380Z,5.77
2023-04-13T05:15:16.934Z,5.80
2023-04-13T05:16:16.562Z,5.79
2023-04-13T05:17:17.192Z,5.80
2023-04-13T05:18:16.746Z,5.80
2023-04-13T05:19:17.296Z,5.83
2023-04-13T05:20:16.904Z,5.83
2023-04-13T05:21:16.428Z,5.85
2023-04-13T05:22:16.470Z,5.83
2023-04-13T05:23:17.051Z,5.90
2023-04-13T05:24:16.621Z,5.93
2023-04-13T05:25:17.178Z,5.94
2023-04-13T05:26:16.750Z,5.97
2023-04-13T05:27:17.340Z,6.00
2023-04-13T05:28:16.935Z,5.97
2023-04-13T05:29:16.482Z,5.98
2023-04-13T05:30:17.051Z,6.00
2023-04-13T05:31:16.671Z,6.04
2023-04-13T05:32:16.348Z,6.03
2023-04-13T05:33:16.916Z,6.07
2023-04-13T05:34:16.542Z,6.07
2023-04-13T05:35:17.187Z,6.11
2023-04-13T05:36:16.734Z,6.12
2023-04-13T05:37:17.321Z,6.14
2023-04-13T05:38:16.902Z,6.21
2023-04-13T05:39:16.451Z,6.22
2023-04-13T05:40:17.040Z,6.26
2023-04-13T05:41:16.590Z,6.29
2023-04-13T05:42:16.496Z,6.31
2023-04-13T05:43:17.087Z,6.33
2023-04-13T05:44:16.652Z,6.39
2023-04-13T05:46:16.865Z,6.42
2023-04-13T05:47:16.517Z,6.48
2023-04-13T05:48:17.137Z,6.52
2023-04-13T05:49:16.726Z,6.55
2023-04-13T05:50:17.275Z,6.50
2023-04-13T05:51:16.836Z,6.52
2023-04-13T05:52:16.347Z,6.53
2023-04-13T05:53:16.903Z,6.59
2023-04-13T05:54:16.458Z,6.57
2023-04-13T05:55:17.049Z,6.57
2023-04-13T05:56:16.597Z,6.61
2023-04-13T05:57:17.213Z,6.63
2023-04-13T05:58:16.751Z,6.61
2023-04-13T05:59:17.312Z,6.61
2023-04-13T06:00:16.853Z,6.65
2023-04-13T06:01:16.424Z,6.69
2023-04-13T06:02:17.351Z,6.74
2023-04-13T06:03:17.178Z,6.74
2023-04-13T06:04:17.554Z,6.77
2023-04-13T06:05:16.600Z,6.80
2023-04-13T06:06:17.255Z,6.79
2023-04-13T06:07:16.837Z,6.77
2023-04-13T06:08:16.420Z,6.83
2023-04-13T06:09:16.979Z,6.84
2023-04-13T06:10:16.580Z,6.90
2023-04-13T06:11:17.234Z,6.91
2023-04-13T06:12:16.791Z,6.91
2023-04-13T06:13:16.340Z,6.98
2023-04-13T06:14:16.901Z,7.02
2023-04-13T06:15:16.449Z,7.04
2023-04-13T06:16:17.016Z,7.01
2023-04-13T06:17:16.593Z,7.05
2023-04-13T06:18:17.314Z,7.04
2023-04-13T06:19:16.899Z,7.07
2023-04-13T06:20:16.451Z,7.11
2023-04-13T06:21:16.983Z,7.10
2023-04-13T06:22:16.878Z,7.11
2023-04-13T06:23:16.437Z,7.14
2023-04-13T06:24:16.993Z,7.16
2023-04-13T06:25:16.601Z,7.23
2023-04-13T06:26:17.288Z,7.25
2023-04-13T06:27:16.918Z,7.29
2023-04-13T06:28:16.491Z,7.30
2023-04-13T06:29:17.102Z,7.39
2023-04-13T06:30:16.640Z,7.43
2023-04-13T06:31:16.416Z,7.45
2023-04-13T06:32:16.600Z,7.47
2023-04-13T06:33:17.227Z,7.51
2023-04-13T06:34:16.791Z,7.61
2023-04-13T06:35:16.351Z,7.76
2023-04-13T06:36:16.913Z,7.83
2023-04-13T06:37:16.481Z,7.85
2023-04-13T06:38:17.048Z,7.85
2023-04-13T06:39:16.601Z,7.92
2023-04-13T06:40:17.150Z,8.09
2023-04-13T06:41:16.705Z,8.13
2023-04-13T06:42:17.276Z,8.12
2023-04-13T06:43:28.941Z,8.06
2023-04-13T06:44:16.359Z,8.01
2023-04-13T06:45:16.910Z,7.97
2023-04-13T06:46:18.440Z,7.98
2023-04-13T06:47:16.526Z,7.95
2023-04-13T06:48:17.094Z,7.98
2023-04-13T06:49:16.654Z,8.01
2023-04-13T06:50:17.307Z,8.01
2023-04-13T06:51:16.842Z,8.05
2023-04-13T06:52:16.497Z,8.08
2023-04-13T06:53:17.096Z,8.06
2023-04-13T06:54:16.652Z,8.08
2023-04-13T06:55:17.219Z,8.12
2023-04-13T06:56:16.787Z,8.15
2023-04-13T06:57:17.366Z,8.18
2023-04-13T06:58:16.905Z,8.15
2023-04-13T06:59:16.493Z,8.13
2023-04-13T07:00:28.694Z,8.18
2023-04-13T07:01:16.982Z,8.18
2023-04-13T07:02:17.283Z,8.16
2023-04-13T07:03:17.092Z,8.20
2023-04-13T07:04:17.065Z,8.23
2023-04-13T07:05:16.926Z,8.22
2023-04-13T07:06:16.508Z,8.23
2023-04-13T07:07:17.070Z,8.28
2023-04-13T07:08:16.614Z,8.28
2023-04-13T07:09:17.186Z,8.29
2023-04-13T07:10:16.731Z,8.20
2023-04-13T07:11:17.282Z,8.15
2023-04-13T07:12:17.079Z,8.13
2023-04-13T07:13:16.662Z,8.12
2023-04-13T07:14:17.213Z,8.12
2023-04-13T07:15:16.804Z,8.11
2023-04-13T07:16:16.474Z,8.15
2023-04-13T07:17:17.245Z,8.13
2023-04-13T07:18:16.886Z,8.19
2023-04-13T07:19:16.451Z,8.22
2023-04-13T07:20:17.015Z,8.25
2023-04-13T07:21:16.554Z,8.23
2023-04-13T07:22:16.395Z,8.26
2023-04-13T07:23:16.920Z,8.29
2023-04-13T07:24:16.467Z,8.29
2023-04-13T07:25:17.019Z,8.26
2023-04-13T07:26:16.592Z,8.28
2023-04-13T07:27:17.215Z,8.28
2023-04-13T07:28:16.806Z,8.28
2023-04-13T07:29:16.420Z,8.29
2023-04-13T07:30:17.059Z,8.40
2023-04-13T07:31:16.764Z,8.46
2023-04-13T07:32:16.801Z,8.51
2023-04-13T07:33:16.825Z,8.54
2023-04-13T07:34:16.756Z,8.56
2023-04-13T07:35:16.351Z,8.78
2023-04-13T07:36:16.912Z,8.85
2023-04-13T07:37:16.482Z,8.78
2023-04-13T07:38:17.040Z,8.72
2023-04-13T07:39:16.593Z,8.63
2023-04-13T07:40:17.146Z,8.69
2023-04-13T07:41:16.691Z,8.78
2023-04-13T07:42:17.039Z,8.75
2023-04-13T07:43:17.361Z,8.91
2023-04-13T07:44:16.850Z,9.02
2023-04-13T07:45:16.483Z,8.99
2023-04-13T07:46:17.056Z,8.94
2023-04-13T07:47:16.759Z,8.91
2023-04-13T07:48:16.352Z,8.94
2023-04-13T07:49:16.923Z,8.92
2023-04-13T07:50:16.508Z,8.91
2023-04-13T07:51:17.045Z,8.85
2023-04-13T07:52:16.951Z,8.68
2023-04-13T07:53:16.572Z,8.58
2023-04-13T07:54:17.107Z,8.60
2023-04-13T07:55:16.683Z,8.61
2023-04-13T07:56:17.291Z,8.64
2023-04-13T07:57:16.866Z,8.58
2023-04-13T07:58:16.459Z,8.56
2023-04-13T07:59:17.030Z,8.53
2023-04-13T08:00:16.590Z,8.58
2023-04-13T08:01:17.174Z,8.63
2023-04-13T08:02:17.293Z,8.71
2023-04-13T08:03:17.352Z,8.71
2023-04-13T08:04:17.385Z,8.65
2023-04-13T08:05:16.583Z,8.69
2023-04-13T08:06:16.683Z,8.75
2023-04-13T08:07:17.224Z,8.82
2023-04-13T08:08:16.821Z,8.87
2023-04-13T08:09:16.419Z,8.85
2023-04-13T08:10:16.980Z,8.99
2023-04-13T08:11:16.579Z,9.01
2023-04-13T08:12:17.201Z,8.94
2023-04-13T08:13:16.770Z,8.92
2023-04-13T08:14:17.357Z,8.90
2023-04-13T08:15:16.955Z,8.96
2023-04-13T08:16:16.504Z,9.05
2023-04-13T08:17:17.127Z,9.08
2023-04-13T08:18:16.697Z,9.02
2023-04-13T08:19:17.240Z,9.01
2023-04-13T08:20:16.833Z,8.88
2023-04-13T08:21:16.429Z,8.91
2023-04-13T08:22:16.908Z,9.02
2023-04-13T08:23:16.460Z,9.22
2023-04-13T08:24:16.998Z,9.57
2023-04-13T08:25:16.570Z,9.69
2023-04-13T08:26:17.126Z,9.46
2023-04-13T08:27:16.687Z,9.54
2023-04-13T08:28:17.276Z,9.37
2023-04-13T08:29:16.870Z,9.38
2023-04-13T08:30:16.464Z,9.47
2023-04-13T08:31:17.026Z,9.68
2023-04-13T08:32:16.727Z,9.68
2023-04-13T08:33:16.450Z,9.54
2023-04-13T08:34:17.007Z,9.59
2023-04-13T08:35:16.580Z,9.62
2023-04-13T08:36:17.177Z,9.58
2023-04-13T08:37:16.901Z,9.50
2023-04-13T08:38:16.472Z,9.50
2023-04-13T08:39:17.024Z,9.19
2023-04-13T08:40:16.600Z,9.05
2023-04-13T08:41:17.269Z,8.88
2023-04-13T08:42:16.459Z,8.58
2023-04-13T08:43:17.009Z,8.69
2023-04-13T08:44:16.544Z,8.69
2023-04-13T08:45:17.092Z,8.72
2023-04-13T08:46:16.696Z,8.96
2023-04-13T08:47:17.352Z,9.10
2023-04-13T08:48:16.906Z,9.23
2023-04-13T08:49:16.546Z,9.25
2023-04-13T08:50:17.129Z,9.23
2023-04-13T08:51:16.683Z,9.29
2023-04-13T08:52:16.949Z,9.47
2023-04-13T08:53:16.621Z,9.55
2023-04-13T08:54:17.197Z,9.43
2023-04-13T08:55:16.973Z,9.26
2023-04-13T08:56:16.610Z,9.68
2023-04-13T08:57:17.184Z,9.88
2023-04-13T08:58:16.729Z,10.27
2023-04-13T08:59:17.289Z,10.27
2023-04-13T09:00:16.840Z,10.31
2023-04-13T09:01:16.450Z,10.30
2023-04-13T09:02:16.412Z,10.44
2023-04-13T09:03:17.260Z,10.45
2023-04-13T09:04:17.777Z,10.44
2023-04-13T09:05:16.787Z,10.95
2023-04-13T09:06:16.806Z,11.07
2023-04-13T09:07:16.396Z,10.96
2023-04-13T09:08:17.012Z,10.83
2023-04-13T09:09:16.570Z,10.78
2023-04-13T09:10:17.158Z,10.89
2023-04-13T09:11:16.685Z,10.85
2023-04-13T09:12:17.118Z,10.72
2023-04-13T09:13:16.720Z,10.76
2023-04-13T09:14:17.315Z,10.55
2023-04-13T09:15:16.889Z,10.90
2023-04-13T09:16:16.481Z,10.51
2023-04-13T09:17:17.257Z,10.12
2023-04-13T09:18:17.054Z,10.16
2023-04-13T09:19:16.666Z,10.05
2023-04-13T09:20:17.255Z,10.10
2023-04-13T09:21:16.829Z,10.00
2023-04-13T09:22:16.824Z,9.81
2023-04-13T09:23:16.406Z,9.74
2023-04-13T09:24:16.987Z,9.71
2023-04-13T09:25:16.531Z,9.66
2023-04-13T09:26:17.107Z,9.61
2023-04-13T09:27:16.661Z,9.53
2023-04-13T09:28:17.266Z,9.50
2023-04-13T09:29:16.811Z,9.59
2023-04-13T09:30:16.358Z,9.55
2023-04-13T09:31:16.972Z,9.51
2023-04-13T09:32:16.959Z,9.61
2023-04-13T09:33:16.530Z,9.65
2023-04-13T09:34:17.113Z,9.64
2023-04-13T09:35:16.813Z,9.78
2023-04-13T09:36:16.425Z,9.80
2023-04-13T09:37:16.990Z,9.88
2023-04-13T09:38:16.543Z,10.03
2023-04-13T09:39:17.144Z,10.05
2023-04-13T09:40:16.698Z,10.21
2023-04-13T09:41:17.243Z,10.31
2023-04-13T09:42:17.289Z,10.31
2023-04-13T09:43:16.844Z,10.17
2023-04-13T09:44:16.444Z,10.05
2023-04-13T09:45:16.979Z,9.92
2023-04-13T09:46:16.570Z,10.00
2023-04-13T09:47:17.173Z,10.06
2023-04-13T09:48:16.802Z,10.16
2023-04-13T09:49:16.363Z,10.16
2023-04-13T09:50:16.932Z,10.06
2023-04-13T09:51:16.492Z,10.00
2023-04-13T09:52:17.228Z,10.02
2023-04-13T09:53:16.788Z,9.75
2023-04-13T09:54:16.374Z,9.80
2023-04-13T09:55:16.954Z,10.05
2023-04-13T09:56:16.486Z,9.99
2023-04-13T09:57:17.037Z,9.91
2023-04-13T09:58:16.607Z,9.85
2023-04-13T09:59:17.207Z,9.81
2023-04-13T10:00:18.950Z,9.85
2023-04-13T10:01:17.282Z,9.92
2023-04-13T10:02:17.128Z,10.08
2023-04-13T10:03:16.938Z,9.95
2023-04-13T10:04:16.644Z,10.05
2023-04-13T10:05:17.222Z,10.13
2023-04-13T10:06:16.911Z,10.12
2023-04-13T10:07:16.461Z,10.61
2023-04-13T10:08:21.746Z,10.71
2023-04-13T10:09:16.931Z,10.93
2023-04-13T10:10:16.531Z,10.76
2023-04-13T10:11:17.088Z,10.58
2023-04-13T10:12:16.843Z,10.41
2023-04-13T10:13:21.953Z,10.24
2023-04-13T10:14:17.160Z,10.12
2023-04-13T10:15:16.791Z,10.17
2023-04-13T10:16:16.385Z,10.48
2023-04-13T10:17:17.057Z,10.54
2023-04-13T10:18:16.741Z,10.54
2023-04-13T10:19:17.197Z,10.49
2023-04-13T10:20:16.767Z,10.44
2023-04-13T10:21:16.372Z,10.51
2023-04-13T10:22:16.322Z,10.51
2023-04-13T10:23:16.891Z,10.48
2023-04-13T10:24:16.452Z,10.40
2023-04-13T10:25:29.458Z,10.45
2023-04-13T10:26:16.486Z,10.40
2023-04-13T10:27:17.095Z,10.40
2023-04-13T10:28:16.685Z,10.51
2023-04-13T10:29:17.812Z,10.78
2023-04-13T10:30:16.708Z,10.67
2023-04-13T10:31:17.326Z,10.19
2023-04-13T10:32:17.116Z,10.05
2023-04-13T10:33:16.657Z,9.82
2023-04-13T10:34:17.191Z,9.65
2023-04-13T10:35:16.729Z,9.61
2023-04-13T10:36:17.334Z,9.58
2023-04-13T10:37:16.893Z,9.58
2023-04-13T10:38:16.432Z,9.55
2023-04-13T10:39:16.993Z,9.57
2023-04-13T10:40:16.612Z,9.57
2023-04-13T10:41:17.149Z,9.53
2023-04-13T10:42:18.010Z,9.57
2023-04-13T10:43:16.785Z,9.65
2023-04-13T10:44:16.364Z,9.59
2023-04-13T10:45:16.927Z,9.65
2023-04-13T10:46:16.525Z,9.81
2023-04-13T10:47:17.200Z,10.12
2023-04-13T10:48:16.832Z,10.14
2023-04-13T10:49:16.438Z,10.34
2023-04-13T10:50:16.993Z,10.55
2023-04-13T10:51:16.580Z,10.82
2023-04-13T10:52:16.496Z,11.37
2023-04-13T10:53:17.040Z,11.37
2023-04-13T10:54:16.646Z,11.11
2023-04-13T10:55:17.241Z,11.20
2023-04-13T10:56:16.855Z,11.16
2023-04-13T10:57:16.418Z,11.30
2023-04-13T10:58:17.000Z,11.31
2023-04-13T10:59:16.599Z,11.24
2023-04-13T11:00:17.165Z,11.04
2023-04-13T11:01:16.749Z,10.98
2023-04-13T11:02:17.155Z,10.88
2023-04-13T11:03:17.788Z,10.83
2023-04-13T11:04:18.571Z,10.93
2023-04-13T11:05:16.625Z,11.07
2023-04-13T11:06:17.208Z,11.03
2023-04-13T11:07:16.773Z,10.95
2023-04-13T11:08:16.345Z,10.74
2023-04-13T11:09:17.313Z,10.60
2023-04-13T11:10:16.905Z,10.67
2023-04-13T11:11:16.450Z,10.75
2023-04-13T11:12:17.272Z,11.13
2023-04-13T11:13:16.860Z,11.17
2023-04-13T11:14:18.108Z,11.14
2023-04-13T11:15:16.756Z,11.41
2023-04-13T11:16:17.328Z,11.96
2023-04-13T11:17:17.039Z,12.03
2023-04-13T11:18:17.020Z,11.69
2023-04-13T11:19:16.584Z,11.24
2023-04-13T11:20:17.176Z,11.45
2023-04-13T11:21:16.772Z,11.50
2023-04-13T11:22:16.393Z,11.52
2023-04-13T11:23:16.976Z,11.61
2023-04-13T11:24:16.526Z,11.54
2023-04-13T11:25:17.117Z,11.30
2023-04-13T11:26:16.696Z,11.10
2023-04-13T11:27:17.332Z,11.02
2023-04-13T11:28:16.903Z,10.85
2023-04-13T11:29:16.486Z,10.48
2023-04-13T11:30:17.259Z,10.48
2023-04-13T11:31:16.879Z,10.41
2023-04-13T11:32:16.939Z,10.26
2023-04-13T11:33:16.653Z,10.23
2023-04-13T11:34:17.196Z,10.14
2023-04-13T11:35:16.783Z,9.98
2023-04-13T11:36:16.367Z,9.81
2023-04-13T11:37:16.929Z,9.86
2023-04-13T11:38:16.470Z,9.86
2023-04-13T11:39:17.005Z,9.68
2023-04-13T11:40:16.610Z,9.66
2023-04-13T11:41:17.527Z,9.62
2023-04-13T11:42:16.884Z,9.40
2023-04-13T11:43:16.442Z,9.37
2023-04-13T11:44:17.002Z,9.48
2023-04-13T11:45:16.790Z,9.48
2023-04-13T11:46:16.883Z,9.66
2023-04-13T11:47:16.529Z,9.58
2023-04-13T11:48:17.109Z,9.50
2023-04-13T11:49:16.658Z,9.59
2023-04-13T11:50:17.328Z,9.53
2023-04-13T11:51:16.945Z,9.65
2023-04-13T11:52:16.503Z,9.50
2023-04-13T11:53:17.089Z,9.46
2023-04-13T11:54:16.648Z,9.54
2023-04-13T11:55:22.992Z,9.58
2023-04-13T11:56:16.833Z,9.34
2023-04-13T11:57:16.401Z,9.33
2023-04-13T11:58:16.959Z,9.33
2023-04-13T11:59:16.539Z,9.27
2023-04-13T12:00:17.078Z,9.22
2023-04-13T12:01:23.569Z,9.29
2023-04-13T12:02:21.678Z,9.37
2023-04-13T12:04:17.435Z,9.53
2023-04-13T12:05:17.425Z,9.82
2023-04-13T12:06:16.613Z,9.92
2023-04-13T12:07:17.594Z,9.95
2023-04-13T12:08:17.424Z,10.13
2023-04-13T12:09:18.174Z,10.30
2023-04-13T12:10:23.078Z,10.31
2023-04-13T12:11:40.180Z,10.21
2023-04-13T12:12:50.266Z,10.12
2023-04-13T12:13:20.586Z,10.08
2023-04-13T12:14:25.241Z,10.02
2023-04-13T12:15:34.370Z,10.20
2023-04-13T12:16:18.292Z,10.26
2023-04-13T12:18:18.069Z,10.52
2023-04-13T12:19:17.023Z,10.52
2023-04-13T12:20:17.061Z,10.31
2023-04-13T12:21:17.157Z,10.37
2023-04-13T12:22:17.516Z,10.34
2023-04-13T12:23:22.659Z,10.28
2023-04-13T12:24:18.439Z,10.20
2023-04-13T12:25:17.588Z,10.28
2023-04-13T12:26:41.610Z,10.23
2023-04-13T12:27:19.054Z,10.30
2023-04-13T12:28:16.948Z,10.36
2023-04-13T12:29:16.477Z,10.33
2023-04-13T12:30:17.045Z,10.20
2023-04-13T12:31:16.684Z,10.05
2023-04-13T12:32:17.508Z,10.05
2023-04-13T12:33:17.157Z,10.08
2023-04-13T12:34:16.701Z,10.20
2023-04-13T12:35:17.249Z,10.26
2023-04-13T12:36:16.825Z,10.30
2023-04-13T12:37:16.398Z,10.45
2023-04-13T12:38:16.953Z,10.37
2023-04-13T12:39:16.519Z,10.44
2023-04-13T12:40:17.065Z,10.62
2023-04-13T12:41:16.620Z,10.64
2023-04-13T12:42:16.973Z,10.40
2023-04-13T12:43:16.541Z,10.13
2023-04-13T12:44:17.122Z,9.95
2023-04-13T12:45:16.742Z,10.02
2023-04-13T12:46:16.634Z,9.98
2023-04-13T12:47:16.659Z,10.24
2023-04-13T12:48:16.596Z,10.17
2023-04-13T12:49:17.250Z,10.24
2023-04-13T12:50:16.830Z,10.41
2023-04-13T12:51:16.402Z,10.49
2023-04-13T12:52:16.967Z,10.57
2023-04-13T12:53:16.565Z,10.67
2023-04-13T12:54:17.172Z,10.83
2023-04-13T12:55:16.740Z,10.90
2023-04-13T12:56:17.334Z,10.89
2023-04-13T12:57:16.959Z,10.99
2023-04-13T12:58:16.720Z,10.93
2023-04-13T12:59:17.266Z,11.04
2023-04-13T13:00:16.819Z,11.33
2023-04-13T13:01:16.402Z,11.54
2023-04-13T13:02:17.387Z,11.61
2023-04-13T13:03:17.072Z,11.61
2023-04-13T13:04:16.870Z,11.73
2023-04-13T13:05:16.685Z,11.79
2023-04-13T13:06:17.264Z,11.38
2023-04-13T13:07:16.872Z,11.31
2023-04-13T13:08:16.518Z,11.17
2023-04-13T13:09:17.225Z,11.28
2023-04-13T13:10:28.706Z,11.21
2023-04-13T13:11:16.623Z,11.37
2023-04-13T13:12:17.326Z,11.50
2023-04-13T13:13:16.900Z,11.51
2023-04-13T13:14:16.507Z,11.33
2023-04-13T13:15:17.080Z,11.37